sensor_id;sensor_type;location;lat;lon;timestamp;pressure;altitude;pressure_sealevel;temperature;humidity
23118;BME280;11728;50.624;6.014;2023-03-04T00:00:49;99206.97;;;1.57;90.71
23118;BME280;11728;50.624;6.014;2023-03-04T00:05:50;99214.06;;;1.62;90.62
23118;BME280;11728;50.624;6.014;2023-03-04T00:10:50;99209.03;;;1.68;90.92
23118;BME280;11728;50.624;6.014;2023-03-04T00:15:51;99215.31;;;1.76;90.93
23118;BME280;11728;50.624;6.014;2023-03-04T00:20:52;99222.25;;;1.76;90.55
23118;BME280;11728;50.624;6.014;2023-03-04T00:25:52;99216.16;;;1.75;91.07
23118;BME280;11728;50.624;6.014;2023-03-04T00:30:52;99218.00;;;1.79;90.87
23118;BME280;11728;50.624;6.014;2023-03-04T00:35:53;99223.22;;;1.79;90.48
23118;BME280;11728;50.624;6.014;2023-03-04T00:40:53;99212.84;;;1.81;91.09
23118;BME280;11728;50.624;6.014;2023-03-04T00:45:53;99220.88;;;1.90;90.80
23118;BME280;11728;50.624;6.014;2023-03-04T00:50:54;99218.06;;;1.82;90.97
23118;BME280;11728;50.624;6.014;2023-03-04T00:55:54;99208.56;;;1.83;90.96
23118;BME280;11728;50.624;6.014;2023-03-04T01:00:54;99202.38;;;1.79;90.42
23118;BME280;11728;50.624;6.014;2023-03-04T01:05:55;99196.44;;;1.85;91.03
23118;BME280;11728;50.624;6.014;2023-03-04T01:10:55;99202.59;;;1.88;90.70
23118;BME280;11728;50.624;6.014;2023-03-04T01:15:55;99202.78;;;1.94;90.38
23118;BME280;11728;50.624;6.014;2023-03-04T01:20:56;99202.84;;;1.97;90.83
23118;BME280;11728;50.624;6.014;2023-03-04T01:25:57;99197.78;;;2.03;90.84
23118;BME280;11728;50.624;6.014;2023-03-04T01:30:57;99194.28;;;2.01;90.95
23118;BME280;11728;50.624;6.014;2023-03-04T01:35:58;99192.66;;;2.06;90.33
23118;BME280;11728;50.624;6.014;2023-03-04T01:40:58;99184.03;;;2.09;91.06
23118;BME280;11728;50.624;6.014;2023-03-04T01:45:59;99177.91;;;2.07;90.45
23118;BME280;11728;50.624;6.014;2023-03-04T01:50:59;99175.22;;;2.02;91.59
23118;BME280;11728;50.624;6.014;2023-03-04T01:56:18;99160.38;;;2.00;91.07
23118;BME280;11728;50.624;6.014;2023-03-04T02:01:19;99164.94;;;2.08;90.79
23118;BME280;11728;50.624;6.014;2023-03-04T02:06:19;99169.50;;;2.18;91.31
23118;BME280;11728;50.624;6.014;2023-03-04T02:11:19;99165.22;;;2.20;91.12
23118;BME280;11728;50.624;6.014;2023-03-04T02:16:20;99158.22;;;2.19;91.24
23118;BME280;11728;50.624;6.014;2023-03-04T02:21:31;99150.56;;;2.25;90.58
23118;BME280;11728;50.624;6.014;2023-03-04T02:26:32;99146.13;;;2.21;89.96
23118;BME280;11728;50.624;6.014;2023-03-04T02:31:37;99141.75;;;2.19;90.44
23118;BME280;11728;50.624;6.014;2023-03-04T02:36:39;99136.59;;;2.22;90.24
23118;BME280;11728;50.624;6.014;2023-03-04T02:41:39;99155.38;;;2.09;90.42
23118;BME280;11728;50.624;6.014;2023-03-04T02:46:40;99144.09;;;2.08;90.65
23118;BME280;11728;50.624;6.014;2023-03-04T02:51:40;99140.59;;;2.08;90.90
23118;BME280;11728;50.624;6.014;2023-03-04T02:56:49;99133.94;;;2.20;90.65
23118;BME280;11728;50.624;6.014;2023-03-04T03:01:50;99134.91;;;2.24;90.45
23118;BME280;11728;50.624;6.014;2023-03-04T03:06:51;99129.72;;;2.25;90.85
23118;BME280;11728;50.624;6.014;2023-03-04T03:11:51;99121.84;;;2.22;91.50
23118;BME280;11728;50.624;6.014;2023-03-04T03:16:52;99118.50;;;2.28;91.07
23118;BME280;11728;50.624;6.014;2023-03-04T03:21:52;99109.94;;;2.33;91.17
23118;BME280;11728;50.624;6.014;2023-03-04T03:26:52;99111.94;;;2.44;90.96
23118;BME280;11728;50.624;6.014;2023-03-04T03:31:53;99107.63;;;2.45;90.58
23118;BME280;11728;50.624;6.014;2023-03-04T03:36:53;99105.00;;;2.45;90.35
23118;BME280;11728;50.624;6.014;2023-03-04T03:41:53;99105.00;;;2.45;90.74
23118;BME280;11728;50.624;6.014;2023-03-04T03:46:54;99109.41;;;2.47;90.73
23118;BME280;11728;50.624;6.014;2023-03-04T03:51:54;99104.22;;;2.49;90.98
23118;BME280;11728;50.624;6.014;2023-03-04T03:56:54;99095.53;;;2.48;91.67
23118;BME280;11728;50.624;6.014;2023-03-04T04:01:55;99103.50;;;2.56;91.15
23118;BME280;11728;50.624;6.014;2023-03-04T04:06:55;99098.25;;;2.53;91.11
23118;BME280;11728;50.624;6.014;2023-03-04T04:11:55;99090.41;;;2.53;90.91
23118;BME280;11728;50.624;6.014;2023-03-04T04:16:56;99095.97;;;2.69;91.04
23118;BME280;11728;50.624;6.014;2023-03-04T04:21:56;99103.03;;;2.75;89.59
23118;BME280;11728;50.624;6.014;2023-03-04T04:26:57;99097.75;;;2.72;89.74
23118;BME280;11728;50.624;6.014;2023-03-04T04:31:57;99094.38;;;2.76;90.23
23118;BME280;11728;50.624;6.014;2023-03-04T04:36:57;99088.16;;;2.71;90.01
23118;BME280;11728;50.624;6.014;2023-03-04T04:41:58;99086.38;;;2.67;90.49
23118;BME280;11728;50.624;6.014;2023-03-04T04:46:58;99083.00;;;2.72;90.40
23118;BME280;11728;50.624;6.014;2023-03-04T04:51:58;99094.28;;;2.71;90.04
23118;BME280;11728;50.624;6.014;2023-03-04T04:56:59;99094.09;;;2.64;90.70
23118;BME280;11728;50.624;6.014;2023-03-04T05:01:59;99096.78;;;2.67;91.19
23118;BME280;11728;50.624;6.014;2023-03-04T05:07:00;99097.78;;;2.73;90.28
23118;BME280;11728;50.624;6.014;2023-03-04T05:12:00;99106.50;;;2.74;90.39
23118;BME280;11728;50.624;6.014;2023-03-04T05:17:00;99107.34;;;2.73;90.27
23118;BME280;11728;50.624;6.014;2023-03-04T05:22:00;99105.69;;;2.76;90.94
23118;BME280;11728;50.624;6.014;2023-03-04T05:27:01;99112.75;;;2.82;89.98
23118;BME280;11728;50.624;6.014;2023-03-04T05:32:02;99102.31;;;2.82;90.24
23118;BME280;11728;50.624;6.014;2023-03-04T05:37:02;99104.09;;;2.83;90.91
23118;BME280;11728;50.624;6.014;2023-03-04T05:42:03;99105.97;;;2.90;90.04
23118;BME280;11728;50.624;6.014;2023-03-04T05:47:03;99105.84;;;2.84;90.66
23118;BME280;11728;50.624;6.014;2023-03-04T05:52:03;99118.69;;;2.75;90.51
23118;BME280;11728;50.624;6.014;2023-03-04T05:57:04;99110.88;;;2.75;90.20
23118;BME280;11728;50.624;6.014;2023-03-04T06:02:04;99122.06;;;2.71;90.56
23118;BME280;11728;50.624;6.014;2023-03-04T06:07:05;99118.59;;;2.70;91.61
23118;BME280;11728;50.624;6.014;2023-03-04T06:12:05;99124.63;;;2.68;91.19
23118;BME280;11728;50.624;6.014;2023-03-04T06:17:06;99131.66;;;2.72;91.37
23118;BME280;11728;50.624;6.014;2023-03-04T06:22:07;99134.34;;;2.75;91.29
23118;BME280;11728;50.624;6.014;2023-03-04T06:27:08;99137.13;;;2.84;91.45
23118;BME280;11728;50.624;6.014;2023-03-04T06:32:08;99135.59;;;2.93;91.55
23118;BME280;11728;50.624;6.014;2023-03-04T06:37:08;99131.31;;;2.97;90.90
23118;BME280;11728;50.624;6.014;2023-03-04T06:42:09;99146.28;;;3.06;91.26
23118;BME280;11728;50.624;6.014;2023-03-04T06:47:09;99142.94;;;3.13;90.76
23118;BME280;11728;50.624;6.014;2023-03-04T06:52:10;99147.22;;;3.10;91.06
23118;BME280;11728;50.624;6.014;2023-03-04T06:57:12;99151.47;;;3.03;91.15
23118;BME280;11728;50.624;6.014;2023-03-04T07:02:12;99152.41;;;3.07;91.30
23118;BME280;11728;50.624;6.014;2023-03-04T07:07:13;99150.72;;;3.10;91.80
23118;BME280;11728;50.624;6.014;2023-03-04T07:12:13;99160.50;;;3.20;90.98
23118;BME280;11728;50.624;6.014;2023-03-04T07:17:13;99158.03;;;3.28;90.31
23118;BME280;11728;50.624;6.014;2023-03-04T07:22:14;99165.19;;;3.38;89.87
23118;BME280;11728;50.624;6.014;2023-03-04T07:27:14;99167.63;;;3.29;89.83
23118;BME280;11728;50.624;6.014;2023-03-04T07:32:15;99164.16;;;3.30;90.36
23118;BME280;11728;50.624;6.014;2023-03-04T07:37:15;99171.47;;;3.47;90.80
23118;BME280;11728;50.624;6.014;2023-03-04T07:42:15;99171.69;;;3.59;90.34
23118;BME280;11728;50.624;6.014;2023-03-04T07:47:16;99174.47;;;3.70;89.92
23118;BME280;11728;50.624;6.014;2023-03-04T07:52:16;99188.66;;;3.82;90.15
23118;BME280;11728;50.624;6.014;2023-03-04T07:57:16;99180.91;;;3.88;90.04
23118;BME280;11728;50.624;6.014;2023-03-04T08:02:17;99187.22;;;3.99;90.00
23118;BME280;11728;50.624;6.014;2023-03-04T08:07:17;99186.53;;;4.10;89.98
23118;BME280;11728;50.624;6.014;2023-03-04T08:12:18;99189.25;;;4.16;89.69
23118;BME280;11728;50.624;6.014;2023-03-04T08:17:18;99191.00;;;4.16;89.73
23118;BME280;11728;50.624;6.014;2023-03-04T08:22:19;99189.41;;;4.24;90.33
23118;BME280;11728;50.624;6.014;2023-03-04T08:27:19;99192.97;;;4.32;89.99
23118;BME280;11728;50.624;6.014;2023-03-04T08:32:20;99200.97;;;4.41;89.71
23118;BME280;11728;50.624;6.014;2023-03-04T08:37:20;99202.88;;;4.51;90.38
23118;BME280;11728;50.624;6.014;2023-03-04T08:42:21;99199.56;;;4.60;89.40
23118;BME280;11728;50.624;6.014;2023-03-04T08:47:23;99203.19;;;4.71;89.54
23118;BME280;11728;50.624;6.014;2023-03-04T08:52:23;99198.19;;;4.86;89.14
23118;BME280;11728;50.624;6.014;2023-03-04T08:57:24;99208.00;;;5.01;89.05
23118;BME280;11728;50.624;6.014;2023-03-04T09:02:24;99199.44;;;5.15;88.50
23118;BME280;11728;50.624;6.014;2023-03-04T09:07:25;99196.94;;;5.23;88.47
23118;BME280;11728;50.624;6.014;2023-03-04T09:12:25;99203.09;;;5.26;88.01
23118;BME280;11728;50.624;6.014;2023-03-04T09:17:25;99198.75;;;5.28;87.86
23118;BME280;11728;50.624;6.014;2023-03-04T09:22:26;99194.53;;;5.37;87.50
23118;BME280;11728;50.624;6.014;2023-03-04T09:27:26;99186.78;;;5.48;87.33
23118;BME280;11728;50.624;6.014;2023-03-04T09:32:27;99192.16;;;5.61;86.87
23118;BME280;11728;50.624;6.014;2023-03-04T09:37:27;99199.41;;;5.82;86.06
23118;BME280;11728;50.624;6.014;2023-03-04T09:42:36;99178.50;;;5.88;86.11
23118;BME280;11728;50.624;6.014;2023-03-04T09:47:38;99182.22;;;6.10;85.71
23118;BME280;11728;50.624;6.014;2023-03-04T10:03:26;99175.56;;;6.54;84.26
23118;BME280;11728;50.624;6.014;2023-03-04T10:14:15;99182.13;;;6.02;84.42
23118;BME280;11728;50.624;6.014;2023-03-04T10:19:30;99183.69;;;5.83;84.93
23118;BME280;11728;50.624;6.014;2023-03-04T10:24:34;99179.47;;;5.97;85.25
23118;BME280;11728;50.624;6.014;2023-03-04T10:29:35;99178.94;;;6.34;84.95
23118;BME280;11728;50.624;6.014;2023-03-04T10:34:36;99180.81;;;6.54;85.15
23118;BME280;11728;50.624;6.014;2023-03-04T10:39:43;99173.03;;;6.65;84.76
23118;BME280;11728;50.624;6.014;2023-03-04T10:44:54;99148.75;;;6.98;84.53
23118;BME280;11728;50.624;6.014;2023-03-04T10:49:57;99152.59;;;8.29;81.64
23118;BME280;11728;50.624;6.014;2023-03-04T10:55:03;99146.22;;;9.35;78.19
23118;BME280;11728;50.624;6.014;2023-03-04T11:05:25;99147.22;;;9.03;76.65
23118;BME280;11728;50.624;6.014;2023-03-04T11:10:40;99147.19;;;9.17;75.86
23118;BME280;11728;50.624;6.014;2023-03-04T11:16:01;99148.16;;;8.71;74.72
23118;BME280;11728;50.624;6.014;2023-03-04T11:21:02;99145.56;;;8.14;75.61
23118;BME280;11728;50.624;6.014;2023-03-04T11:26:38;99146.38;;;7.86;75.97
23118;BME280;11728;50.624;6.014;2023-03-04T11:37:46;99130.66;;;8.07;75.59
23118;BME280;11728;50.624;6.014;2023-03-04T11:43:08;99132.41;;;8.05;74.50
23118;BME280;11728;50.624;6.014;2023-03-04T11:53:22;99125.28;;;7.57;75.45
23118;BME280;11728;50.624;6.014;2023-03-04T12:14:43;99113.03;;;7.53;75.87
23118;BME280;11728;50.624;6.014;2023-03-04T12:25:39;99096.38;;;7.55;76.11
23118;BME280;11728;50.624;6.014;2023-03-04T12:31:10;99085.03;;;8.07;76.23
23118;BME280;11728;50.624;6.014;2023-03-04T12:57:39;99051.75;;;8.28;74.30
23118;BME280;11728;50.624;6.014;2023-03-04T13:08:12;99050.00;;;8.18;74.02
23118;BME280;11728;50.624;6.014;2023-03-04T13:13:36;99045.56;;;8.04;74.17
23118;BME280;11728;50.624;6.014;2023-03-04T13:18:37;99042.09;;;8.06;74.19
23118;BME280;11728;50.624;6.014;2023-03-04T13:23:38;99036.81;;;8.12;74.16
23118;BME280;11728;50.624;6.014;2023-03-04T13:28:39;99022.81;;;8.19;73.87
23118;BME280;11728;50.624;6.014;2023-03-04T13:33:48;99018.44;;;8.18;73.59
23118;BME280;11728;50.624;6.014;2023-03-04T13:39:01;99018.44;;;7.97;73.66
23118;BME280;11728;50.624;6.014;2023-03-04T13:44:33;99012.31;;;7.94;74.15
23118;BME280;11728;50.624;6.014;2023-03-04T13:49:34;99015.81;;;7.88;74.17
23118;BME280;11728;50.624;6.014;2023-03-04T13:54:34;99011.41;;;8.02;73.78
23118;BME280;11728;50.624;6.014;2023-03-04T13:59:40;99004.41;;;8.07;73.76
23118;BME280;11728;50.624;6.014;2023-03-04T14:04:45;99003.50;;;8.08;73.52
23118;BME280;11728;50.624;6.014;2023-03-04T14:09:58;98998.25;;;7.98;73.96
23118;BME280;11728;50.624;6.014;2023-03-04T14:15:03;98997.38;;;7.85;73.84
23118;BME280;11728;50.624;6.014;2023-03-04T14:20:23;98994.78;;;7.78;74.66
23118;BME280;11728;50.624;6.014;2023-03-04T14:30:27;98986.03;;;7.70;74.67
23118;BME280;11728;50.624;6.014;2023-03-04T14:35:30;98974.63;;;7.63;74.47
23118;BME280;11728;50.624;6.014;2023-03-04T14:40:35;98981.63;;;7.50;75.07
23118;BME280;11728;50.624;6.014;2023-03-04T14:45:41;98979.88;;;7.34;75.69
23118;BME280;11728;50.624;6.014;2023-03-04T14:50:50;98978.13;;;7.24;76.13
23118;BME280;11728;50.624;6.014;2023-03-04T14:55:59;98971.09;;;7.15;76.48
23118;BME280;11728;50.624;6.014;2023-03-04T15:11:28;98955.34;;;7.08;78.00
23118;BME280;11728;50.624;6.014;2023-03-04T15:16:52;98953.59;;;7.04;78.12
23118;BME280;11728;50.624;6.014;2023-03-04T15:22:04;98951.81;;;7.00;78.90
23118;BME280;11728;50.624;6.014;2023-03-04T15:27:09;98959.69;;;6.92;79.02
23118;BME280;11728;50.624;6.014;2023-03-04T15:32:10;98947.44;;;6.97;79.04
23118;BME280;11728;50.624;6.014;2023-03-04T15:37:18;98943.97;;;6.98;79.37
23118;BME280;11728;50.624;6.014;2023-03-04T15:42:19;98943.06;;;6.92;79.87
23118;BME280;11728;50.624;6.014;2023-03-04T15:47:19;98940.44;;;6.89;80.23
23118;BME280;11728;50.624;6.014;2023-03-04T15:52:20;98930.81;;;6.89;80.36
23118;BME280;11728;50.624;6.014;2023-03-04T15:57:24;98927.28;;;6.82;81.34
23118;BME280;11728;50.624;6.014;2023-03-04T16:02:25;98924.66;;;6.79;81.79
23118;BME280;11728;50.624;6.014;2023-03-04T16:07:28;98936.03;;;6.73;81.99
23118;BME280;11728;50.624;6.014;2023-03-04T16:12:29;98927.28;;;6.70;82.29
23118;BME280;11728;50.624;6.014;2023-03-04T16:17:31;98932.50;;;6.71;82.54
23118;BME280;11728;50.624;6.014;2023-03-04T16:22:31;98936.03;;;6.67;82.63
23118;BME280;11728;50.624;6.014;2023-03-04T16:27:32;98931.63;;;6.68;82.89
23118;BME280;11728;50.624;6.014;2023-03-04T16:32:32;98928.13;;;6.72;82.75
23118;BME280;11728;50.624;6.014;2023-03-04T16:37:33;98932.53;;;6.77;82.46
23118;BME280;11728;50.624;6.014;2023-03-04T16:42:33;98916.78;;;6.77;82.43
23118;BME280;11728;50.624;6.014;2023-03-04T16:47:34;98919.41;;;6.77;82.25
23118;BME280;11728;50.624;6.014;2023-03-04T16:52:35;98919.38;;;6.67;82.96
23118;BME280;11728;50.624;6.014;2023-03-04T16:57:35;98925.47;;;6.52;84.37
23118;BME280;11728;50.624;6.014;2023-03-04T17:02:36;98921.91;;;6.35;85.76
23118;BME280;11728;50.624;6.014;2023-03-04T17:07:36;98920.13;;;6.31;87.06
23118;BME280;11728;50.624;6.014;2023-03-04T17:12:36;98909.66;;;6.28;87.71
23118;BME280;11728;50.624;6.014;2023-03-04T17:17:38;98916.66;;;6.32;88.20
23118;BME280;11728;50.624;6.014;2023-03-04T17:22:38;98918.41;;;6.35;88.50
23118;BME280;11728;50.624;6.014;2023-03-04T17:27:39;98907.06;;;6.33;88.16
23118;BME280;11728;50.624;6.014;2023-03-04T17:32:40;98916.63;;;6.26;88.81
23118;BME280;11728;50.624;6.014;2023-03-04T17:37:40;98918.38;;;6.26;88.81
23118;BME280;11728;50.624;6.014;2023-03-04T17:42:41;98919.25;;;6.25;89.14
23118;BME280;11728;50.624;6.014;2023-03-04T17:47:42;98914.81;;;6.16;89.41
23118;BME280;11728;50.624;6.014;2023-03-04T17:52:42;98913.94;;;6.11;89.89
23118;BME280;11728;50.624;6.014;2023-03-04T17:57:42;98918.31;;;6.12;90.11
23118;BME280;11728;50.624;6.014;2023-03-04T18:02:43;98920.97;;;6.15;90.09
23118;BME280;11728;50.624;6.014;2023-03-04T18:07:43;98918.31;;;6.11;90.45
23118;BME280;11728;50.624;6.014;2023-03-04T18:12:43;98919.19;;;6.10;90.35
23118;BME280;11728;50.624;6.014;2023-03-04T18:17:46;98923.59;;;6.15;90.62
23118;BME280;11728;50.624;6.014;2023-03-04T18:22:47;98922.66;;;6.12;90.90
23118;BME280;11728;50.624;6.014;2023-03-04T18:27:47;98923.56;;;6.12;91.39
23118;BME280;11728;50.624;6.014;2023-03-04T18:32:48;98920.03;;;6.06;91.45
23118;BME280;11728;50.624;6.014;2023-03-04T18:37:48;98918.25;;;6.05;91.87
23118;BME280;11728;50.624;6.014;2023-03-04T18:42:49;98906.03;;;6.03;92.17
23118;BME280;11728;50.624;6.014;2023-03-04T18:47:50;98911.28;;;6.00;92.83
23118;BME280;11728;50.624;6.014;2023-03-04T18:52:52;98906.88;;;6.00;93.14
23118;BME280;11728;50.624;6.014;2023-03-04T18:57:54;98900.81;;;6.04;93.15
23118;BME280;11728;50.624;6.014;2023-03-04T19:03:04;98908.66;;;6.08;93.56
23118;BME280;11728;50.624;6.014;2023-03-04T19:08:06;98897.28;;;6.04;93.74
23118;BME280;11728;50.624;6.014;2023-03-04T19:13:06;98906.88;;;6.00;94.28
23118;BME280;11728;50.624;6.014;2023-03-04T19:18:07;98902.53;;;5.98;94.80
23118;BME280;11728;50.624;6.014;2023-03-04T19:23:08;98899.88;;;5.93;95.47
23118;BME280;11728;50.624;6.014;2023-03-04T19:28:09;98900.72;;;5.91;96.12
23118;BME280;11728;50.624;6.014;2023-03-04T19:33:10;98916.44;;;5.94;96.14
23118;BME280;11728;50.624;6.014;2023-03-04T19:38:10;98912.97;;;5.92;96.16
23118;BME280;11728;50.624;6.014;2023-03-04T19:43:12;98919.09;;;5.98;96.08
23118;BME280;11728;50.624;6.014;2023-03-04T19:48:13;98916.53;;;6.06;95.83
23118;BME280;11728;50.624;6.014;2023-03-04T19:53:15;98914.78;;;6.06;95.52
23118;BME280;11728;50.624;6.014;2023-03-04T19:58:18;98922.66;;;6.06;95.17
23118;BME280;11728;50.624;6.014;2023-03-04T20:03:19;98913.88;;;6.03;95.45
23118;BME280;11728;50.624;6.014;2023-03-04T20:08:20;98916.50;;;6.00;95.81
23118;BME280;11728;50.624;6.014;2023-03-04T20:13:20;98915.63;;;5.99;95.73
23118;BME280;11728;50.624;6.014;2023-03-04T20:18:21;98903.38;;;5.98;95.49
23118;BME280;11728;50.624;6.014;2023-03-04T20:23:21;98902.47;;;5.95;95.46
23118;BME280;11728;50.624;6.014;2023-03-04T20:28:22;98905.97;;;5.92;95.18
23118;BME280;11728;50.624;6.014;2023-03-04T20:33:23;98909.47;;;5.90;95.13
23118;BME280;11728;50.624;6.014;2023-03-04T20:38:24;98907.69;;;5.89;95.18
23118;BME280;11728;50.624;6.014;2023-03-04T20:43:24;98905.06;;;5.84;95.05
23118;BME280;11728;50.624;6.014;2023-03-04T20:48:29;98909.44;;;5.84;94.80
23118;BME280;11728;50.624;6.014;2023-03-04T20:53:29;98903.34;;;5.85;94.72
23118;BME280;11728;50.624;6.014;2023-03-04T20:58:29;98909.44;;;5.87;94.46
23118;BME280;11728;50.624;6.014;2023-03-04T21:03:30;98894.59;;;5.89;94.17
23118;BME280;11728;50.624;6.014;2023-03-04T21:08:30;98886.72;;;5.83;94.05
23118;BME280;11728;50.624;6.014;2023-03-04T21:13:31;98894.53;;;5.80;93.96
23118;BME280;11728;50.624;6.014;2023-03-04T21:18:32;98898.91;;;5.81;94.05
23118;BME280;11728;50.624;6.014;2023-03-04T21:23:32;98889.34;;;5.83;93.46
23118;BME280;11728;50.624;6.014;2023-03-04T21:28:32;98892.81;;;5.80;93.59
23118;BME280;11728;50.624;6.014;2023-03-04T21:33:34;98894.53;;;5.78;93.07
23118;BME280;11728;50.624;6.014;2023-03-04T21:38:36;98896.28;;;5.76;92.47
23118;BME280;11728;50.624;6.014;2023-03-04T21:43:36;98898.81;;;5.72;92.40
23118;BME280;11728;50.624;6.014;2023-03-04T21:48:36;98896.22;;;5.72;92.54
23118;BME280;11728;50.624;6.014;2023-03-04T21:53:37;98894.44;;;5.69;91.42
23118;BME280;11728;50.624;6.014;2023-03-04T21:58:38;98896.19;;;5.66;91.27
23118;BME280;11728;50.624;6.014;2023-03-04T22:03:41;98890.94;;;5.63;90.80
23118;BME280;11728;50.624;6.014;2023-03-04T22:08:41;98897.00;;;5.56;90.48
23118;BME280;11728;50.624;6.014;2023-03-04T22:13:42;98882.16;;;5.55;90.22
23118;BME280;11728;50.624;6.014;2023-03-04T22:18:42;98875.16;;;5.55;90.31
23118;BME280;11728;50.624;6.014;2023-03-04T22:23:43;98878.66;;;5.54;89.79
23118;BME280;11728;50.624;6.014;2023-03-04T22:28:43;98873.41;;;5.51;89.70
23118;BME280;11728;50.624;6.014;2023-03-04T22:33:44;98877.72;;;5.45;89.37
23118;BME280;11728;50.624;6.014;2023-03-04T22:38:45;98877.66;;;5.36;89.86
23118;BME280;11728;50.624;6.014;2023-03-04T22:43:46;98873.31;;;5.38;89.49
23118;BME280;11728;50.624;6.014;2023-03-04T22:48:48;98870.69;;;5.39;89.32
23118;BME280;11728;50.624;6.014;2023-03-04T22:53:49;98868.06;;;5.38;88.64
23118;BME280;11728;50.624;6.014;2023-03-04T22:58:50;98871.56;;;5.34;88.46
23118;BME280;11728;50.624;6.014;2023-03-04T23:03:51;98863.63;;;5.28;88.39
23118;BME280;11728;50.624;6.014;2023-03-04T23:08:52;98847.03;;;5.25;87.98
23118;BME280;11728;50.624;6.014;2023-03-04T23:13:53;98851.41;;;5.24;87.57
23118;BME280;11728;50.624;6.014;2023-03-04T23:18:54;98847.00;;;5.20;87.62
23118;BME280;11728;50.624;6.014;2023-03-04T23:23:55;98850.47;;;5.15;87.08
23118;BME280;11728;50.624;6.014;2023-03-04T23:28:56;98849.59;;;5.16;86.94
23118;BME280;11728;50.624;6.014;2023-03-04T23:34:00;98858.31;;;5.15;86.51
23118;BME280;11728;50.624;6.014;2023-03-04T23:39:02;98855.69;;;5.15;85.95
23118;BME280;11728;50.624;6.014;2023-03-04T23:44:03;98850.47;;;5.16;85.36
23118;BME280;11728;50.624;6.014;2023-03-04T23:49:06;98843.47;;;5.14;84.93
23118;BME280;11728;50.624;6.014;2023-03-04T23:54:06;98833.88;;;5.11;84.96
23118;BME280;11728;50.624;6.014;2023-03-04T23:59:07;98838.25;;;5.17;84.73
